Дата Пункты Температура Давл., мм. Влажн., % Ветер Погодные явления
Воздуха Воды Направл. Скорость
23.06.19 03:00 Одесса 31.0 25.0 757 32 С 1 15 ГОДИН
23.06.19 12:00 Одесса 27.0 25.0 758 49 Пн 0 12 ГОДИН
23.06.19 09:00 Одесса 27.0 25.0 758 63 Пн 1 09 ГОДИН
23.06.19 06:00 Одесса 24.0 25.0 758 70 Пн 0 06 ГОДИН
23.06.19 03:00 Одесса 26.0 25.0 758 66 Пд 2 03 ГОДИНИ
22.06.19 09:00 Одесса 27.0 25.0 757 69 Пд-З 2 21 ГОДИНУ
22.06.19 06:00 Одесса 30.0 25.0 757 45 Пд 3 18 ГОДИН
22.06.19 03:00 Одесса 30.0 25.0 758 50 Пд 3 15 ГОДИН
22.06.19 12:00 Одесса 31.0 25.0 758 41 Пд-С 2 12 ГОДИН
22.06.19 09:00 Одесса 31.0 25.0 757 37 Пн 0 09 ГОДИН
22.06.19 06:00 Одесса 24.0 25.0 757 56 Пн 0 06 ГОДИН
22.06.19 03:00 Одесса 26.0 25.0 757 50 Пн-З 1 03 ГОДИНИ
21.06.19 09:00 Одесса 27.0 23.0 756 36 Пн 0 21 ГОДИНУ
21.06.19 06:00 Одесса 33.0 25.0 756 24 Пд 1 18 ГОДИН
21.06.19 03:00 Одесса 32.0 25.0 757 26 Пд-С 2 15 ГОДИН
21.06.19 12:00 Одесса 29.0 25.0 757 51 С 2 12 ГОДИН
21.06.19 09:00 Одесса 26.0 25.0 757 67 Пн 0 09 ГОДИН
21.06.19 06:00 Одесса 23.0 25.0 756 71 Пн 1 06 ГОДИН
21.06.19 03:00 Одесса 24.0 25.0 755 63 Пн 0 03 ГОДИНИ
20.06.19 09:00 Одесса 27.0 25.0 755 47 Пн 0 21 ГОДИНУ
Количество строк
1 2 3 4 5 6 7 8 9 10
Page 10 of 511